This is the latest recevied weather packets stored in our database for station/object SQ9NFI-4. If no packets are shown the sender has not sent any weather packets the latest 1 day(s).
| Time | Temp. | Humidity | Pressure | Rain* | Wind** | Luminosity | Snow |
|---|---|---|---|---|---|---|---|
| 1778048378 | 20° C | 53% | 1007.5 hPa | 0 mm | - | 310 W/m² | - |
| 1778048078 | 20° C | 53% | 1007.5 hPa | 0 mm | - | 296 W/m² | - |
| 1778047778 | 19.44° C | 53% | 1007.5 hPa | 0 mm | - | 282 W/m² | - |
| 1778047478 | 19.44° C | 52% | 1007.5 hPa | 0 mm | - | 268 W/m² | - |
| 1778046877 | 19.44° C | 53% | 1006.8 hPa | 0 mm | - | 240 W/m² | - |
| 1778045377 | 18.33° C | 55% | 1006.8 hPa | 0 mm | - | 183 W/m² | - |
| 1778044178 | 18.33° C | 58% | 1006.8 hPa | 0 mm | - | 142 W/m² | - |
| 1778042677 | 17.78° C | 58% | 1006.8 hPa | 0 mm | - | 37 W/m² | - |
| 1778041477 | 16.67° C | 61% | 1006.8 hPa | 0 mm | - | 35 W/m² | - |
| 1778040877 | 15.56° C | 64% | 1006.8 hPa | 0 mm | - | 26 W/m² | - |
| 1778040577 | 15° C | 65% | 1006.8 hPa | 0 mm | - | 23 W/m² | - |
| 1778037877 | 11.11° C | 77% | 1006.4 hPa | 0 mm | - | 7 W/m² | - |
| 1778037577 | 10.56° C | 80% | 1006.4 hPa | 0 mm | - | 5 W/m² | - |
| 1778037278 | 9.44° C | 84% | 1006.4 hPa | 0 mm | - | 4 W/m² | - |
| 1778036077 | 8.33° C | 93% | 1006.8 hPa | 0 mm | - | 0 W/m² | - |
| 1778035777 | 8.33° C | 93% | 1006.8 hPa | 0 mm | - | 0 W/m² | - |
| 1778034577 | 8.33° C | 95% | 1006.4 hPa | 0 mm | - | 0 W/m² | - |
| 1778034277 | 7.78° C | 94% | 1006.4 hPa | 0 mm | - | 0 W/m² | - |
| 1778033977 | 7.78° C | 93% | 1006.4 hPa | 0 mm | - | 0 W/m² | - |
| 1778033677 | 7.78° C | 93% | 1006.4 hPa | 0 mm | - | 0 W/m² | - |
| 1778033377 | 7.78° C | 94% | 1006.4 hPa | 0 mm | - | 0 W/m² | - |
| 1778032477 | 8.33° C | 94% | 1006.4 hPa | 0 mm | - | 0 W/m² | - |
| 1778031877 | 8.33° C | 92% | 1006.8 hPa | 0 mm | - | 0 W/m² | - |
| 1778030977 | 8.89° C | 87% | 1006.8 hPa | 0 mm | - | 0 W/m² | - |
| 1778030377 | 8.89° C | 88% | 1006.8 hPa | 0 mm | - | 0 W/m² | - |
* Rain latest hour (hover to see other rain measurements)
** Current wind speed in m/s (hover to see current wind gust speed)